Time;durP1;ratioP1;P1;durP2;ratioP2;P2;SDS_P1;SDS_P2;PMS_P1;PMS_P2;Temp;Humidity;BMP_temperature;BMP_pressure;BME280_temperature;BME280_humidity;BME280_pressure;Samples;Min_cycle;Max_cycle;Signal;HPM_P1;HPM_P2
2023/11/29 00:01:46;;;;;;;0.10;0.10;;;;;;;5.63;80.44;99631.81;5016588;28;20052;-89
2023/11/29 00:04:11;;;;;;;0.20;0.20;;;;;;;5.71;80.44;99649.44;4999926;28;20025;-89
2023/11/29 00:06:37;;;;;;;0.20;0.20;;;;;;;5.70;80.07;99656.28;4997226;28;20025;-90
2023/11/29 00:09:03;;;;;;;0.20;0.20;;;;;;;5.73;80.56;99665.59;4997349;28;20026;-90
2023/11/29 00:11:29;;;;;;;0.20;0.20;;;;;;;5.82;80.28;99672.88;5016800;28;20032;-90
2023/11/29 00:13:55;;;;;;;0.13;0.13;;;;;;;5.77;79.47;99677.38;5000106;28;20107;-91
2023/11/29 00:16:20;;;;;;;0.20;0.20;;;;;;;5.76;80.37;99676.53;4983552;28;20573;-92
2023/11/29 00:18:46;;;;;;;0.20;0.20;;;;;;;5.73;80.42;99678.41;4999979;28;20021;-90
2023/11/29 00:21:11;;;;;;;0.10;0.10;;;;;;;5.76;80.81;99680.84;5016420;28;20025;-91
2023/11/29 00:23:37;;;;;;;0.20;0.20;;;;;;;5.83;80.65;99677.09;5016293;28;20025;-91
2023/11/29 00:26:02;;;;;;;0.17;0.17;;;;;;;5.89;80.46;99689.66;5032917;28;20030;-91
2023/11/29 00:28:28;;;;;;;0.10;0.10;;;;;;;5.99;80.44;99697.81;5000017;28;20547;-90
2023/11/29 00:30:54;;;;;;;0.10;0.10;;;;;;;5.86;80.02;99694.94;4983251;28;20051;-91
2023/11/29 00:33:19;;;;;;;0.10;0.10;;;;;;;5.83;79.78;99691.69;5016216;28;20029;-91
2023/11/29 00:35:45;;;;;;;0.20;0.20;;;;;;;6.00;79.70;99705.47;4999633;28;20060;-90
2023/11/29 00:38:10;;;;;;;0.15;0.15;;;;;;;6.09;79.53;99705.94;4999656;28;20025;-90
2023/11/29 00:40:36;;;;;;;0.20;0.20;;;;;;;6.13;78.67;99707.47;5016092;28;20060;-92
2023/11/29 00:43:01;;;;;;;0.20;0.20;;;;;;;6.11;78.63;99719.56;5016016;28;20021;-89
2023/11/29 00:45:27;;;;;;;0.10;0.10;;;;;;;6.07;78.37;99706.00;5015388;28;20056;-91
2023/11/29 00:47:53;;;;;;;0.20;0.20;;;;;;;6.00;78.67;99725.19;4999601;28;20037;-89
2023/11/29 00:50:19;;;;;;;0.10;0.10;;;;;;;6.06;78.14;99726.63;4999748;28;20084;-91
2023/11/29 00:52:44;;;;;;;0.15;0.15;;;;;;;6.11;78.27;99732.41;4999113;28;20111;-90
2023/11/29 00:55:10;;;;;;;0.20;0.20;;;;;;;6.10;78.04;99735.88;4999270;28;20029;-91
2023/11/29 00:57:35;;;;;;;0.20;0.20;;;;;;;6.13;78.14;99740.84;4999499;28;20044;-90
2023/11/29 01:00:01;;;;;;;0.20;0.20;;;;;;;6.12;77.80;99746.91;5015370;28;20033;-90
2023/11/29 01:02:26;;;;;;;0.20;0.20;;;;;;;6.10;78.33;99753.84;4999367;28;20419;-90
2023/11/29 01:04:52;;;;;;;0.20;0.20;;;;;;;6.15;78.46;99764.72;4982859;28;20041;-91
2023/11/29 01:07:17;;;;;;;0.20;0.20;;;;;;;6.15;77.83;99769.88;5033035;28;20136;-93
2023/11/29 01:09:43;;;;;;;0.20;0.20;;;;;;;6.10;77.78;99776.97;4999000;28;20030;-91
2023/11/29 01:12:08;;;;;;;0.10;0.10;;;;;;;6.12;78.19;99767.44;4999494;28;20478;-90
2023/11/29 01:14:35;;;;;;;0.10;0.10;;;;;;;6.17;77.98;99774.03;4982490;28;20490;-90
2023/11/29 01:17:01;;;;;;;0.10;0.10;;;;;;;6.18;77.73;99782.56;4998897;28;20029;-91
2023/11/29 01:19:26;;;;;;;0.10;0.10;;;;;;;6.17;77.72;99783.47;4998988;28;20033;-91
2023/11/29 01:21:52;;;;;;;0.10;0.10;;;;;;;6.05;77.48;99782.28;5032725;28;20033;-92
2023/11/29 01:24:17;;;;;;;0.20;0.20;;;;;;;5.98;77.25;99789.41;4982524;28;20450;-91
2023/11/29 01:26:43;;;;;;;0.10;0.10;;;;;;;5.83;77.26;99800.31;5015249;28;20025;-89
2023/11/29 01:29:27;;;;;;;0.20;0.20;;;;;;;5.58;77.39;99779.13;5014921;28;20037;-90
2023/11/29 01:31:52;;;;;;;0.20;0.20;;;;;;;5.62;78.68;99804.63;5032568;28;20029;-91
2023/11/29 01:34:18;;;;;;;0.10;0.10;;;;;;;5.63;78.87;99808.00;4982533;28;20063;-91
2023/11/29 01:36:44;;;;;;;0.20;0.20;;;;;;;5.81;79.65;99807.25;4998625;28;20030;-90
2023/11/29 01:39:14;;;;;;;0.10;0.10;;;;;;;5.85;79.18;99816.47;4998495;28;20491;-91
2023/11/29 01:41:40;;;;;;;0.20;0.20;;;;;;;5.80;78.52;99822.69;5015642;28;20120;-89
2023/11/29 01:44:06;;;;;;;0.10;0.10;;;;;;;5.75;78.49;99808.34;5014429;28;20049;-91
2023/11/29 01:46:32;;;;;;;0.10;0.10;;;;;;;5.72;78.63;99817.91;4998348;28;20050;-93
2023/11/29 01:48:58;;;;;;;0.10;0.10;;;;;;;5.74;78.34;99827.19;5010064;28;20116;-90
2023/11/29 01:51:23;;;;;;;0.20;0.20;;;;;;;5.71;78.17;99819.63;4982078;28;20409;-93
2023/11/29 01:53:50;;;;;;;0.20;0.20;;;;;;;5.59;77.90;99804.72;5014525;28;20025;-91
2023/11/29 01:56:16;;;;;;;0.10;0.10;;;;;;;5.64;77.70;99836.19;4998299;28;20057;-90
2023/11/29 01:58:42;;;;;;;0.20;0.20;;;;;;;5.61;77.63;99840.63;4998219;28;20025;-89
2023/11/29 02:01:07;;;;;;;0.20;0.20;;;;;;;5.52;77.90;99826.41;4998421;28;20097;-91
2023/11/29 02:03:33;;;;;;;0.10;0.10;;;;;;;5.51;77.62;99831.63;5014551;28;20025;-90
2023/11/29 02:05:58;;;;;;;0.20;0.20;;;;;;;5.46;77.78;99840.31;4997968;28;20411;-89
2023/11/29 02:08:24;;;;;;;0.20;0.20;;;;;;;5.60;77.09;99841.47;4997972;28;20029;-91
2023/11/29 02:10:50;;;;;;;0.20;0.20;;;;;;;5.71;76.37;99852.16;4981657;28;20025;-89
2023/11/29 02:13:16;;;;;;;0.20;0.20;;;;;;;5.73;75.43;99845.22;5014338;28;20030;-90
2023/11/29 02:15:42;;;;;;;0.15;0.15;;;;;;;5.81;75.51;99862.88;4998345;28;20029;-90
2023/11/29 02:18:08;;;;;;;0.10;0.10;;;;;;;5.59;75.18;99837.25;4981605;28;20030;-90
2023/11/29 02:20:34;;;;;;;0.10;0.10;;;;;;;5.67;75.55;99860.88;4997991;28;20487;-89
2023/11/29 02:23:03;;;;;;;0.20;0.20;;;;;;;5.78;73.99;99876.66;4997940;28;20041;-91
2023/11/29 02:25:28;;;;;;;0.10;0.10;;;;;;;5.75;73.88;99879.34;4998063;28;20083;-89
2023/11/29 02:27:54;;;;;;;0.20;0.20;;;;;;;5.68;73.68;99885.63;4980885;28;20034;-91
2023/11/29 02:30:19;;;;;;;0.10;0.10;;;;;;;5.67;74.19;99882.22;4997045;28;20038;-90
2023/11/29 02:32:45;;;;;;;0.20;0.20;;;;;;;5.68;74.17;99893.31;4981588;28;20120;-91
2023/11/29 02:35:11;;;;;;;0.13;0.13;;;;;;;5.58;74.34;99905.69;4981531;28;20053;-90
2023/11/29 02:37:36;;;;;;;0.20;0.20;;;;;;;5.40;74.27;99873.91;4981423;28;20068;-89
2023/11/29 02:40:03;;;;;;;0.20;0.20;;;;;;;5.45;74.20;99907.91;5013955;28;20030;-91
2023/11/29 02:42:28;;;;;;;0.10;0.10;;;;;;;5.61;73.84;99910.72;4997577;28;20121;-91
2023/11/29 02:44:54;;;;;;;0.20;0.20;;;;;;;5.58;73.10;99907.44;4997357;28;20123;-89
2023/11/29 02:47:19;;;;;;;0.20;0.20;;;;;;;5.71;72.92;99913.75;5031514;28;20065;-91
2023/11/29 02:49:45;;;;;;;0.15;0.15;;;;;;;5.78;72.11;99910.03;4997575;28;20029;-91
2023/11/29 02:52:10;;;;;;;0.10;0.10;;;;;;;5.81;72.05;99904.78;4997662;28;20030;-89
2023/11/29 02:54:36;;;;;;;0.20;0.20;;;;;;;5.89;71.52;99913.00;5031290;28;20472;-92
2023/11/29 02:57:02;;;;;;;0.10;0.10;;;;;;;5.78;70.80;99878.38;4980743;28;20030;-89
2023/11/29 02:59:27;;;;;;;0.20;0.20;;;;;;;5.94;70.95;99900.84;5014053;28;20520;-90
2023/11/29 03:01:53;;;;;;;0.10;0.10;;;;;;;5.97;70.68;99905.00;5013662;28;20033;-90
2023/11/29 03:04:18;;;;;;;0.20;0.20;;;;;;;5.78;70.68;99889.50;4997468;28;20029;-91
2023/11/29 03:06:44;;;;;;;0.20;0.20;;;;;;;5.99;70.96;99923.75;5030995;28;20029;-90
2023/11/29 03:09:09;;;;;;;0.20;0.20;;;;;;;5.91;71.25;99895.84;5013894;28;20052;-90
2023/11/29 03:11:35;;;;;;;0.20;0.20;;;;;;;6.11;70.13;99923.25;5013584;28;20064;-89
2023/11/29 03:14:00;;;;;;;0.20;0.20;;;;;;;6.09;70.19;99919.06;4981083;28;20037;-91
2023/11/29 03:16:26;;;;;;;0.20;0.20;;;;;;;6.12;70.26;99922.34;4997468;28;20030;-90
2023/11/29 03:18:51;;;;;;;0.20;0.20;;;;;;;6.11;70.25;99925.00;4981109;28;20036;-92
2023/11/29 03:21:17;;;;;;;0.10;0.10;;;;;;;6.08;69.57;99933.63;5013687;28;20026;-89
2023/11/29 03:23:42;;;;;;;0.20;0.20;;;;;;;6.11;69.21;99950.69;4997476;28;20068;-92
2023/11/29 03:26:09;;;;;;;0.10;0.10;;;;;;;6.04;69.48;99945.78;4996554;28;20032;-89
2023/11/29 03:28:35;;;;;;;0.20;0.20;;;;;;;5.85;69.17;99921.72;4997682;28;20083;-91
2023/11/29 03:31:00;;;;;;;0.10;0.10;;;;;;;5.95;69.13;99948.72;5013518;28;20029;-90
2023/11/29 03:33:26;;;;;;;0.20;0.20;;;;;;;5.87;69.38;99955.84;4980902;28;20029;-90
2023/11/29 03:35:51;;;;;;;0.20;0.20;;;;;;;5.90;69.68;99960.03;4997090;28;20041;-92
2023/11/29 03:38:17;;;;;;;0.10;0.10;;;;;;;5.76;69.89;99955.47;4997116;28;20065;-90
2023/11/29 03:40:42;;;;;;;0.20;0.20;;;;;;;5.77;70.34;99959.69;5014417;28;20457;-90
2023/11/29 03:43:08;;;;;;;0.20;0.20;;;;;;;5.69;70.93;99970.25;4984375;28;20029;-91
2023/11/29 03:45:34;;;;;;;0.20;0.20;;;;;;;5.57;70.74;99968.16;5000576;28;20045;-90
2023/11/29 03:47:59;;;;;;;0.20;0.20;;;;;;;5.54;71.02;99972.59;5016969;28;20032;-92
2023/11/29 03:50:25;;;;;;;0.20;0.20;;;;;;;5.32;71.19;99952.91;5017017;28;20034;-91
2023/11/29 03:52:50;;;;;;;0.20;0.20;;;;;;;5.48;72.19;99979.63;5016881;28;20056;-91
2023/11/29 03:55:16;;;;;;;0.20;0.20;;;;;;;5.45;72.00;99982.31;5000323;28;20033;-88
2023/11/29 03:57:42;;;;;;;0.20;0.20;;;;;;;5.41;71.66;99988.47;5016042;28;20029;-87
2023/11/29 04:00:08;;;;;;;0.20;0.20;;;;;;;5.33;72.09;99981.94;4999429;28;20384;-85
2023/11/29 04:02:34;;;;;;;0.10;0.10;;;;;;;5.28;71.95;99971.84;5015803;28;20033;-85
2023/11/29 04:04:59;;;;;;;0.10;0.10;;;;;;;5.31;71.91;99984.56;5015615;28;20475;-85
2023/11/29 04:07:25;;;;;;;0.20;0.20;;;;;;;5.44;71.63;99998.59;4999351;28;20026;-85
2023/11/29 04:09:50;;;;;;;0.20;0.20;;;;;;;5.34;72.25;99999.84;5015446;28;20135;-87
2023/11/29 04:12:16;;;;;;;0.20;0.20;;;;;;;5.14;73.32;99981.78;4983586;28;20029;-89
2023/11/29 04:14:41;;;;;;;0.20;0.20;;;;;;;5.06;73.05;99981.22;5016128;28;20036;-90
2023/11/29 04:17:07;;;;;;;0.20;0.20;;;;;;;5.17;73.50;99999.63;4999863;28;20029;-88
2023/11/29 04:19:32;;;;;;;0.20;0.20;;;;;;;5.14;73.50;100004.88;4983935;28;20025;-89
2023/11/29 04:21:58;;;;;;;0.20;0.20;;;;;;;5.04;72.97;99981.28;5016095;28;20033;-90
2023/11/29 04:24:23;;;;;;;0.15;0.15;;;;;;;5.14;72.88;99992.06;5015969;28;20528;-88
2023/11/29 04:26:49;;;;;;;0.20;0.20;;;;;;;5.19;72.23;100018.34;5033911;28;20033;-89
2023/11/29 04:29:14;;;;;;;0.20;0.20;;;;;;;5.23;71.73;100009.66;4983422;28;20033;-89
2023/11/29 04:31:40;;;;;;;0.20;0.20;;;;;;;5.28;71.48;100023.13;5015927;28;20029;-89
2023/11/29 04:34:06;;;;;;;0.20;0.20;;;;;;;5.21;70.87;99998.63;4999525;28;20033;-89
2023/11/29 04:36:31;;;;;;;0.20;0.20;;;;;;;5.37;70.80;100006.56;5015872;28;20072;-89
2023/11/29 04:38:57;;;;;;;0.10;0.10;;;;;;;5.33;71.24;100011.00;4977667;28;20042;-88
2023/11/29 04:41:23;;;;;;;0.10;0.10;;;;;;;5.33;70.37;100021.25;4962440;28;20036;-87
2023/11/29 04:43:49;;;;;;;0.20;0.20;;;;;;;5.39;70.63;100009.91;4978957;28;20028;-89
2023/11/29 04:46:14;;;;;;;0.10;0.10;;;;;;;5.39;70.10;100018.44;4978662;28;20140;-86
2023/11/29 04:48:43;;;;;;;0.20;0.20;;;;;;;5.41;69.74;100011.56;4962803;28;20062;-87
2023/11/29 04:51:08;;;;;;;0.20;0.20;;;;;;;5.38;70.12;100014.22;4963295;28;20045;-86
2023/11/29 04:53:35;;;;;;;0.20;0.20;;;;;;;5.41;69.20;100019.25;4977257;28;20037;-88
2023/11/29 04:56:00;;;;;;;0.20;0.20;;;;;;;5.36;69.17;100010.88;4994838;28;20025;-88
2023/11/29 04:58:26;;;;;;;0.20;0.20;;;;;;;5.37;68.52;100006.56;4978369;28;20384;-86
2023/11/29 05:00:53;;;;;;;0.20;0.20;;;;;;;5.50;68.40;100017.22;4979157;28;20088;-89
2023/11/29 05:03:18;;;;;;;0.10;0.10;;;;;;;5.44;68.20;100021.69;4995298;28;20506;-88
2023/11/29 05:05:44;;;;;;;0.20;0.20;;;;;;;5.53;68.37;100043.59;4979436;28;20026;-90
2023/11/29 05:08:10;;;;;;;0.20;0.20;;;;;;;5.56;68.67;100034.94;4978214;28;20029;-87
2023/11/29 05:10:37;;;;;;;0.10;0.10;;;;;;;5.66;68.26;100044.81;4978256;28;20411;-88
2023/11/29 05:13:02;;;;;;;0.20;0.20;;;;;;;5.59;68.09;100027.97;4978935;28;20034;-87
2023/11/29 05:15:28;;;;;;;0.10;0.10;;;;;;;5.70;67.48;100040.38;4975893;28;20804;-85
2023/11/29 05:17:54;;;;;;;0.20;0.20;;;;;;;5.55;67.69;100005.06;4993732;28;20032;-85
2023/11/29 05:20:19;;;;;;;0.10;0.10;;;;;;;5.71;67.63;100032.66;4993575;28;20029;-86
2023/11/29 05:22:45;;;;;;;0.10;0.10;;;;;;;5.64;68.35;100020.09;4985665;28;20116;-83
2023/11/29 05:25:10;;;;;;;0.10;0.10;;;;;;;5.58;68.28;100015.19;5028723;28;20418;-87
2023/11/29 05:27:36;;;;;;;0.20;0.20;;;;;;;5.64;68.38;100041.47;5002740;28;20034;-91
2023/11/29 05:30:01;;;;;;;0.20;0.20;;;;;;;5.55;68.83;100036.69;5012110;28;20392;-91
2023/11/29 05:32:27;;;;;;;0.10;0.10;;;;;;;5.51;69.06;100045.41;4981140;28;20017;-89
2023/11/29 05:34:52;;;;;;;0.13;0.13;;;;;;;5.37;70.02;100040.75;4986079;28;20153;-92
2023/11/29 05:37:18;;;;;;;0.10;0.10;;;;;;;5.33;69.63;100025.56;4977225;28;20065;-92
2023/11/29 05:39:43;;;;;;;0.10;0.10;;;;;;;5.26;69.90;100029.22;5010934;28;20033;-90
2023/11/29 05:42:09;;;;;;;0.20;0.20;;;;;;;5.17;69.91;100030.38;4978724;28;20061;-84
2023/11/29 05:44:34;;;;;;;0.10;0.10;;;;;;;5.12;70.52;100047.69;5011394;28;20464;-86
2023/11/29 05:47:03;;;;;;;0.20;0.20;;;;;;;5.14;70.68;100056.16;5006311;28;20074;-85
2023/11/29 05:49:29;;;;;;;0.20;0.20;;;;;;;5.00;70.96;100048.09;4973738;28;20030;-83
2023/11/29 05:51:54;;;;;;;0.10;0.10;;;;;;;5.01;71.26;100070.28;5015662;28;20061;-84
2023/11/29 05:54:20;;;;;;;0.20;0.20;;;;;;;4.98;71.38;100060.97;5010786;28;20030;-84
2023/11/29 05:56:48;;;;;;;0.10;0.10;;;;;;;5.14;70.74;100076.66;4995447;28;20077;-87
2023/11/29 05:59:13;;;;;;;0.10;0.10;;;;;;;5.22;70.42;100074.66;4992185;28;20072;-87
2023/11/29 06:01:39;;;;;;;0.10;0.10;;;;;;;5.27;70.48;100061.66;4964404;28;20458;-91
2023/11/29 06:04:05;;;;;;;0.10;0.10;;;;;;;5.27;71.11;100070.19;4994776;28;20029;-90
2023/11/29 06:06:31;;;;;;;0.10;0.10;;;;;;;5.44;70.68;100075.56;4974124;28;20084;-91
2023/11/29 06:09:00;;;;;;;0.10;0.10;;;;;;;5.45;70.40;100072.09;4969029;28;20030;-92
2023/11/29 06:11:26;;;;;;;0.20;0.20;;;;;;;5.41;69.84;100090.25;4978705;28;20030;-90
2023/11/29 06:13:52;;;;;;;0.20;0.20;;;;;;;5.48;70.44;100102.75;4984801;28;20034;-88
2023/11/29 06:16:18;;;;;;;0.20;0.20;;;;;;;5.42;69.46;100097.88;4970693;28;20040;-87
2023/11/29 06:18:44;;;;;;;0.20;0.20;;;;;;;5.48;69.88;100113.03;4985597;28;20030;-89
2023/11/29 06:21:11;;;;;;;0.20;0.20;;;;;;;5.45;70.10;100113.16;4987537;28;20113;-91
2023/11/29 06:23:39;;;;;;;0.20;0.20;;;;;;;5.52;69.76;100120.63;4973655;28;20079;-92
2023/11/29 06:26:04;;;;;;;0.20;0.20;;;;;;;5.48;69.41;100131.00;4961871;28;20034;-91
2023/11/29 06:28:30;;;;;;;0.17;0.17;;;;;;;5.27;69.70;100100.97;4973176;28;20080;-88
2023/11/29 06:30:57;;;;;;;0.20;0.20;;;;;;;5.35;70.24;100124.63;4990435;28;20073;-90
2023/11/29 06:33:23;;;;;;;0.20;0.20;;;;;;;5.40;69.74;100129.59;4973475;28;20525;-88
2023/11/29 06:35:48;;;;;;;0.10;0.10;;;;;;;5.31;70.39;100105.13;4965356;28;20636;-89
2023/11/29 06:38:14;;;;;;;0.10;0.10;;;;;;;5.44;70.50;100123.47;4981500;28;20038;-84
2023/11/29 06:40:40;;;;;;;0.10;0.10;;;;;;;5.41;69.76;100134.69;4990242;28;20090;-84
2023/11/29 06:43:07;;;;;;;0.20;0.20;;;;;;;5.48;70.22;100148.94;4973016;28;20057;-86
2023/11/29 06:45:33;;;;;;;0.10;0.10;;;;;;;5.32;70.30;100152.13;4952083;28;20058;-89
2023/11/29 06:47:59;;;;;;;0.20;0.20;;;;;;;5.43;70.76;100168.81;4977254;28;20154;-91
2023/11/29 06:50:24;;;;;;;0.20;0.20;;;;;;;5.43;70.56;100181.63;4983717;28;20026;-86
2023/11/29 06:52:50;;;;;;;0.20;0.20;;;;;;;5.35;71.00;100186.19;4958854;28;20526;-83
2023/11/29 06:55:18;;;;;;;0.20;0.20;;;;;;;5.27;71.25;100190.75;4972020;28;20034;-88
2023/11/29 06:57:44;;;;;;;0.10;0.10;;;;;;;5.02;70.86;100184.78;4968342;28;20459;-93
2023/11/29 07:00:10;;;;;;;0.20;0.20;;;;;;;5.23;70.54;100206.28;4992472;28;20076;-88
2023/11/29 07:02:39;;;;;;;0.20;0.20;;;;;;;5.34;69.98;100225.56;5007703;28;20040;-88
2023/11/29 07:05:06;;;;;;;0.20;0.20;;;;;;;5.38;70.25;100228.84;4966007;28;20037;-90
2023/11/29 07:07:32;;;;;;;0.20;0.20;;;;;;;5.54;70.81;100231.75;4970816;28;20025;-84
2023/11/29 07:09:57;;;;;;;0.10;0.10;;;;;;;5.40;69.79;100227.91;4974856;28;20038;-86
2023/11/29 07:12:23;;;;;;;0.20;0.20;;;;;;;5.47;70.30;100252.47;4977483;28;20046;-87
2023/11/29 07:14:50;;;;;;;0.20;0.20;;;;;;;5.41;70.02;100249.28;4992871;28;20061;-88
2023/11/29 07:17:16;;;;;;;0.20;0.20;;;;;;;5.53;69.63;100266.00;4983987;28;20045;-90
2023/11/29 07:19:42;;;;;;;0.20;0.20;;;;;;;5.52;69.75;100266.88;4978635;28;20027;-93
2023/11/29 07:22:08;;;;;;;0.20;0.20;;;;;;;5.54;69.42;100276.19;4973839;28;20041;-91
2023/11/29 07:24:33;;;;;;;0.20;0.20;;;;;;;5.53;69.41;100271.13;4982733;28;20034;-91
2023/11/29 07:26:59;;;;;;;0.20;0.20;;;;;;;5.62;69.73;100278.50;5010227;28;20096;-89
2023/11/29 07:29:24;;;;;;;0.20;0.20;;;;;;;5.65;69.39;100263.00;5002944;28;20518;-87
2023/11/29 07:31:53;;;;;;;0.10;0.10;;;;;;;5.75;68.05;100267.75;5005496;28;20488;-91
2023/11/29 07:34:20;;;;;;;0.20;0.20;;;;;;;5.76;68.18;100245.50;4968822;28;20022;-91
2023/11/29 07:36:51;;;;;;;0.20;0.20;;;;;;;5.91;68.35;100269.84;5006897;28;20042;-91
2023/11/29 07:39:20;;;;;;;0.10;0.10;;;;;;;6.03;68.12;100279.66;4978167;28;20550;-92
2023/11/29 07:41:47;;;;;;;0.20;0.20;;;;;;;6.08;68.14;100277.75;4968366;28;20037;-92
2023/11/29 07:44:16;;;;;;;0.10;0.10;;;;;;;6.15;66.86;100286.09;5009901;28;20038;-88
2023/11/29 07:46:42;;;;;;;0.15;0.15;;;;;;;6.19;67.12;100285.06;4989720;28;20062;-90
2023/11/29 07:49:12;;;;;;;0.20;0.20;;;;;;;6.25;67.29;100279.72;4971984;28;20540;-92
2023/11/29 07:51:44;;;;;;;0.10;0.10;;;;;;;6.35;67.88;100281.06;5010698;28;20018;-89
2023/11/29 07:54:09;;;;;;;0.20;0.20;;;;;;;6.46;67.66;100299.47;4969750;28;20034;-92
2023/11/29 07:56:35;;;;;;;0.10;0.10;;;;;;;6.44;67.57;100278.16;4949505;28;20034;-88
2023/11/29 07:59:01;;;;;;;0.20;0.20;;;;;;;6.58;66.49;100288.72;4986605;28;20058;-85
2023/11/29 08:01:26;;;;;;;0.10;0.10;;;;;;;6.54;66.73;100288.91;4948608;28;20090;-90
2023/11/29 08:03:52;;;;;;;0.10;0.10;;;;;;;6.61;67.66;100313.50;4966477;28;20025;-84
2023/11/29 08:06:20;;;;;;;0.20;0.20;;;;;;;6.56;66.49;100315.41;4979768;28;20038;-86
2023/11/29 08:08:45;;;;;;;0.13;0.13;;;;;;;6.71;67.05;100321.72;4997307;28;20419;-90
2023/11/29 08:11:11;;;;;;;0.10;0.10;;;;;;;6.79;66.68;100327.41;4984708;28;20037;-86
2023/11/29 08:13:36;;;;;;;0.20;0.20;;;;;;;6.84;66.17;100326.31;4983678;28;20018;-84
2023/11/29 08:16:02;;;;;;;0.20;0.20;;;;;;;6.96;67.99;100332.72;4991645;28;20032;-88
2023/11/29 08:18:28;;;;;;;0.20;0.20;;;;;;;7.06;67.46;100354.59;4991589;28;20126;-92
2023/11/29 08:20:53;;;;;;;0.20;0.20;;;;;;;7.12;66.41;100358.69;4988837;28;20030;-87
2023/11/29 08:23:19;;;;;;;0.20;0.20;;;;;;;7.18;65.30;100356.72;4993084;28;20109;-89
2023/11/29 08:25:46;;;;;;;0.20;0.20;;;;;;;7.51;68.30;100363.16;4992438;28;20058;-88
2023/11/29 08:28:11;;;;;;;0.20;0.20;;;;;;;7.50;63.69;100372.63;4980335;28;20092;-91
2023/11/29 08:30:37;;;;;;;0.13;0.13;;;;;;;7.55;62.84;100377.56;5001975;28;20037;-89
2023/11/29 08:33:02;;;;;;;0.20;0.20;;;;;;;7.49;63.71;100370.94;4972914;28;20102;-93
2023/11/29 08:35:28;;;;;;;0.20;0.20;;;;;;;7.52;63.25;100373.41;4967716;28;20475;-85
2023/11/29 08:37:53;;;;;;;0.20;0.20;;;;;;;7.39;61.36;100379.94;4962420;28;20022;-88
2023/11/29 08:40:20;;;;;;;0.10;0.10;;;;;;;7.39;61.64;100377.38;4965009;28;20041;-90
2023/11/29 08:42:45;;;;;;;0.20;0.20;;;;;;;7.28;61.57;100371.81;4966508;28;20038;-87
2023/11/29 08:45:11;;;;;;;0.20;0.20;;;;;;;7.38;61.87;100383.41;4963607;28;20054;-88
2023/11/29 08:47:37;;;;;;;0.20;0.20;;;;;;;7.22;62.04;100388.31;5004455;28;20038;-88
2023/11/29 08:50:05;;;;;;;0.10;0.10;;;;;;;7.32;62.53;100386.22;5012477;28;20026;-89
2023/11/29 08:52:31;;;;;;;0.13;0.13;;;;;;;7.27;62.29;100378.66;5006847;28;20033;-92
2023/11/29 08:54:56;;;;;;;0.20;0.20;;;;;;;7.27;60.44;100385.53;5010469;28;20399;-91
2023/11/29 08:57:23;;;;;;;0.20;0.20;;;;;;;7.21;60.94;100375.50;5013003;28;20044;-86
2023/11/29 08:59:50;;;;;;;0.10;0.10;;;;;;;7.32;61.18;100409.38;5004686;28;20030;-88
2023/11/29 09:02:20;;;;;;;0.20;0.20;;;;;;;7.41;61.14;100414.16;5015176;28;20104;-92
2023/11/29 09:04:45;;;;;;;0.20;0.20;;;;;;;7.32;60.12;100406.81;5010955;28;20113;-94
2023/11/29 09:07:11;;;;;;;0.20;0.20;;;;;;;7.36;60.76;100413.50;5005059;28;20248;-89
2023/11/29 09:09:37;;;;;;;0.20;0.20;;;;;;;7.33;61.12;100423.91;5009575;28;20041;-90
2023/11/29 09:12:03;;;;;;;0.20;0.20;;;;;;;7.46;61.22;100418.22;5001899;28;20521;-87
2023/11/29 09:14:29;;;;;;;0.10;0.10;;;;;;;7.49;60.67;100404.41;5011295;28;20080;-85
2023/11/29 09:16:56;;;;;;;0.20;0.20;;;;;;;7.55;61.12;100411.88;5009980;28;20055;-85
2023/11/29 09:19:22;;;;;;;0.20;0.20;;;;;;;7.63;61.09;100420.13;4994897;28;20048;-86
2023/11/29 09:21:48;;;;;;;0.20;0.20;;;;;;;7.56;61.77;100403.25;5001428;28;20022;-87
2023/11/29 09:24:14;;;;;;;0.20;0.20;;;;;;;7.62;62.03;100405.59;5012935;28;20081;-86
2023/11/29 09:26:40;;;;;;;0.20;0.20;;;;;;;7.49;61.69;100396.69;4972839;28;20053;-86
2023/11/29 09:29:06;;;;;;;0.20;0.20;;;;;;;7.56;61.67;100408.41;4977753;28;20518;-89
2023/11/29 09:31:32;;;;;;;0.10;0.10;;;;;;;7.39;62.29;100403.94;5011470;28;20046;-92
2023/11/29 09:33:57;;;;;;;0.20;0.20;;;;;;;7.39;61.70;100419.38;5000259;28;20028;-90
2023/11/29 09:36:23;;;;;;;0.20;0.20;;;;;;;7.42;62.74;100402.97;4975609;28;20116;-89
2023/11/29 09:38:50;;;;;;;0.20;0.20;;;;;;;7.51;62.76;100420.63;4983272;28;20026;-92
2023/11/29 09:41:16;;;;;;;0.20;0.20;;;;;;;7.46;61.82;100418.22;5021883;28;20505;-88
2023/11/29 09:43:41;;;;;;;0.20;0.20;;;;;;;7.39;61.96;100421.13;4985771;28;20508;-82
2023/11/29 09:46:07;;;;;;;0.20;0.20;;;;;;;7.35;61.72;100424.69;4992833;28;20050;-90
2023/11/29 09:48:33;;;;;;;0.20;0.20;;;;;;;7.40;61.15;100423.63;5024499;28;20064;-90
2023/11/29 09:50:58;;;;;;;0.10;0.10;;;;;;;7.32;62.29;100435.13;5023116;28;20039;-88
2023/11/29 09:53:26;;;;;;;0.20;0.20;;;;;;;7.18;62.07;100415.91;5005416;28;20029;-87
2023/11/29 09:55:52;;;;;;;0.10;0.10;;;;;;;7.23;63.12;100438.88;5020590;28;20022;-83
2023/11/29 09:58:17;;;;;;;0.20;0.20;;;;;;;7.24;62.43;100444.84;5008948;28;20523;-89
2023/11/29 10:00:43;;;;;;;0.20;0.20;;;;;;;7.26;62.04;100435.34;5009025;28;20033;-80
2023/11/29 10:03:13;;;;;;;0.10;0.10;;;;;;;7.40;62.90;100444.22;5016331;28;20030;-81
2023/11/29 10:05:48;;;;;;;0.13;0.13;;;;;;;7.37;61.58;100439.16;4960254;28;20029;-80
2023/11/29 10:08:19;;;;;;;0.20;0.20;;;;;;;7.31;62.51;100448.88;4968824;28;20030;-87
2023/11/29 10:10:48;;;;;;;0.20;0.20;;;;;;;7.18;62.54;100439.06;4977735;28;20075;-85
2023/11/29 10:13:15;;;;;;;0.20;0.20;;;;;;;7.24;62.79;100440.53;5003779;28;20030;-85
2023/11/29 10:15:46;;;;;;;0.20;0.20;;;;;;;7.27;62.71;100442.16;5001477;28;20041;-86
2023/11/29 10:18:11;;;;;;;0.20;0.20;;;;;;;7.14;62.91;100440.06;4998644;28;20069;-86
2023/11/29 10:20:37;;;;;;;0.20;0.20;;;;;;;7.29;63.84;100450.69;4974007;28;20033;-88
2023/11/29 10:23:02;;;;;;;0.20;0.20;;;;;;;7.41;63.30;100460.50;4996937;28;20030;-87
2023/11/29 10:25:32;;;;;;;0.20;0.20;;;;;;;7.39;62.94;100447.69;4986607;28;20096;-85
2023/11/29 10:27:58;;;;;;;0.20;0.20;;;;;;;7.53;62.48;100462.59;4982049;28;20030;-89
2023/11/29 10:30:24;;;;;;;0.20;0.20;;;;;;;7.41;62.37;100465.66;5002320;28;20084;-86
2023/11/29 10:32:49;;;;;;;0.10;0.10;;;;;;;7.38;61.33;100446.00;5007545;28;20030;-86
2023/11/29 10:35:15;;;;;;;0.10;0.10;;;;;;;7.39;59.71;100470.84;5026473;28;20078;-90
2023/11/29 10:37:44;;;;;;;0.20;0.20;;;;;;;7.38;59.97;100476.91;5008940;28;20164;-84
2023/11/29 10:40:14;;;;;;;0.15;0.15;;;;;;;7.40;58.95;100487.97;4988297;28;20136;-87
2023/11/29 10:42:44;;;;;;;0.20;0.20;;;;;;;7.27;59.10;100494.44;4988785;28;20108;-83
2023/11/29 10:45:12;;;;;;;0.20;0.20;;;;;;;7.10;59.01;100482.25;5012077;28;20099;-85
2023/11/29 10:47:40;;;;;;;0.10;0.10;;;;;;;7.01;60.05;100451.72;5018043;28;20526;-82
2023/11/29 10:50:10;;;;;;;0.10;0.10;;;;;;;7.12;59.82;100470.16;4975892;28;20030;-86
2023/11/29 10:52:36;;;;;;;0.20;0.20;;;;;;;7.14;58.90;100476.06;4982292;28;20025;-85
2023/11/29 10:55:02;;;;;;;0.20;0.20;;;;;;;7.26;59.01;100490.22;4983384;28;20026;-86
2023/11/29 10:57:49;;;;;;;0.10;0.10;;;;;;;7.08;59.08;100507.19;4991715;28;20172;-83
2023/11/29 11:00:15;;;;;;;0.20;0.20;;;;;;;7.01;59.28;100486.88;4999459;28;20547;-86
2023/11/29 11:02:45;;;;;;;0.20;0.20;;;;;;;6.96;58.73;100494.75;5013849;28;20128;-91
2023/11/29 11:05:11;;;;;;;0.20;0.20;;;;;;;6.98;59.12;100503.28;4991894;28;20109;-88
2023/11/29 11:07:40;;;;;;;0.20;0.20;;;;;;;6.89;58.83;100485.59;5001432;28;20061;-87
2023/11/29 11:10:08;;;;;;;0.20;0.20;;;;;;;6.84;57.79;100503.75;5005835;28;20045;-89
2023/11/29 11:12:33;;;;;;;0.20;0.20;;;;;;;6.87;58.66;100518.22;4987383;28;20661;-88
2023/11/29 11:15:07;;;;;;;0.20;0.20;;;;;;;6.90;58.91;100515.56;5019316;28;20079;-89
2023/11/29 11:17:34;;;;;;;0.17;0.17;;;;;;;6.96;58.59;100523.03;4982638;28;20030;-91
2023/11/29 11:20:06;;;;;;;0.20;0.20;;;;;;;6.82;57.92;100530.41;5008476;28;20060;-90
2023/11/29 11:22:41;;;;;;;0.20;0.20;;;;;;;6.78;57.96;100526.25;5007310;28;20096;-89
2023/11/29 11:25:07;;;;;;;0.20;0.20;;;;;;;6.71;57.60;100527.38;4993778;28;20033;-89
2023/11/29 11:27:40;;;;;;;0.20;0.20;;;;;;;6.73;57.27;100520.44;5003923;28;20146;-92
2023/11/29 11:30:14;;;;;;;0.20;0.20;;;;;;;6.97;57.22;100534.16;4991155;28;20050;-91
2023/11/29 11:32:40;;;;;;;0.20;0.20;;;;;;;6.90;56.78;100525.84;5011059;28;20522;-88